createdAt,value
2022-08-07T00:01:44.394Z,0.30
2022-08-07T00:04:15.732Z,0.20
2022-08-07T00:06:51.575Z,0.20
2022-08-07T00:09:22.729Z,0.43
2022-08-07T00:11:55.806Z,0.30
2022-08-07T00:14:30.364Z,0.20
2022-08-07T00:17:00.431Z,0.20
2022-08-07T00:19:33.976Z,0.25
2022-08-07T00:22:03.450Z,0.20
2022-08-07T00:24:31.733Z,0.30
2022-08-07T00:27:05.993Z,0.20
2022-08-07T00:29:36.941Z,0.20
2022-08-07T00:32:06.752Z,0.20
2022-08-07T00:34:35.433Z,0.10
2022-08-07T00:37:05.123Z,0.20
2022-08-07T00:39:33.052Z,0.13
2022-08-07T00:42:04.935Z,0.20
2022-08-07T00:44:33.613Z,0.15
2022-08-07T00:47:02.314Z,0.20
2022-08-07T00:50:20.037Z,0.20
2022-08-07T00:52:17.623Z,0.20
2022-08-07T00:54:47.470Z,0.80
2022-08-07T00:57:22.684Z,0.20
2022-08-07T00:59:49.776Z,0.22
2022-08-07T01:02:28.559Z,0.30
2022-08-07T01:04:58.552Z,0.40
2022-08-07T01:07:28.248Z,0.20
2022-08-07T01:10:04.181Z,0.17
2022-08-07T01:12:35.527Z,0.20
2022-08-07T01:15:04.561Z,0.32
2022-08-07T01:17:32.217Z,0.20
2022-08-07T01:20:09.175Z,0.30
2022-08-07T01:22:46.679Z,0.20
2022-08-07T01:25:53.745Z,0.30
2022-08-07T01:28:08.721Z,0.22
2022-08-07T01:30:39.023Z,0.35
2022-08-07T01:33:06.054Z,1.27
2022-08-07T01:35:53.667Z,0.20
2022-08-07T01:38:24.819Z,0.20
2022-08-07T01:41:00.648Z,0.30
2022-08-07T01:43:34.557Z,0.22
2022-08-07T01:46:05.745Z,0.20
2022-08-07T01:48:35.814Z,0.20
2022-08-07T01:52:02.471Z,0.45
2022-08-07T01:54:12.497Z,0.25
2022-08-07T01:56:52.338Z,0.25
2022-08-07T01:59:31.187Z,0.47
2022-08-07T02:02:07.187Z,0.93
2022-08-07T02:04:55.991Z,0.30
2022-08-07T02:07:36.135Z,0.57
2022-08-07T02:10:14.836Z,0.38
2022-08-07T02:12:46.369Z,0.25
2022-08-07T02:15:20.228Z,0.30
2022-08-07T02:17:51.807Z,0.50
2022-08-07T02:20:23.926Z,0.50
2022-08-07T02:23:00.082Z,0.32
2022-08-07T02:26:10.705Z,0.30
2022-08-07T02:28:24.552Z,0.30
2022-08-07T02:30:53.830Z,0.30
2022-08-07T02:33:23.225Z,0.32
2022-08-07T02:36:30.568Z,0.35
2022-08-07T02:38:39.890Z,0.60
2022-08-07T02:41:21.766Z,0.30
2022-08-07T02:43:49.997Z,0.20
2022-08-07T02:46:19.847Z,0.30
2022-08-07T02:48:55.108Z,1.10
2022-08-07T02:51:41.884Z,0.47
2022-08-07T02:54:13.224Z,0.30
2022-08-07T02:56:42.816Z,0.40
2022-08-07T02:59:18.609Z,0.75
2022-08-07T03:01:52.303Z,0.40
2022-08-07T03:04:24.390Z,0.35
2022-08-07T03:06:53.076Z,0.40
2022-08-07T03:09:43.345Z,0.35
2022-08-07T03:12:21.755Z,0.30
2022-08-07T03:14:52.123Z,0.55
2022-08-07T03:17:20.164Z,0.20
2022-08-07T03:19:55.073Z,0.43
2022-08-07T03:22:24.170Z,0.30
2022-08-07T03:24:57.349Z,0.20
2022-08-07T03:27:30.588Z,0.30
2022-08-07T03:30:10.839Z,0.20
2022-08-07T03:32:49.113Z,0.30
2022-08-07T03:35:27.605Z,0.38
2022-08-07T03:38:13.312Z,0.30
2022-08-07T03:40:44.405Z,0.30
2022-08-07T03:43:14.593Z,0.30
2022-08-07T03:45:43.644Z,0.30
2022-08-07T03:48:15.115Z,0.95
2022-08-07T03:50:43.246Z,0.20
2022-08-07T03:53:50.155Z,0.30
2022-08-07T03:56:13.763Z,0.20
2022-08-07T03:59:09.417Z,0.20
2022-08-07T04:01:30.236Z,0.30
2022-08-07T04:04:00.138Z,0.20
2022-08-07T04:06:36.393Z,0.30
2022-08-07T04:09:14.980Z,0.30
2022-08-07T04:12:24.667Z,0.20
2022-08-07T04:14:37.385Z,0.20
2022-08-07T04:17:20.583Z,0.30
2022-08-07T04:19:54.877Z,0.30
2022-08-07T04:22:28.466Z,0.40
2022-08-07T04:24:58.872Z,0.30
2022-08-07T04:27:35.734Z,0.30
2022-08-07T04:30:04.898Z,0.30
2022-08-07T04:32:37.900Z,0.20
2022-08-07T04:35:07.310Z,0.20
2022-08-07T04:38:01.208Z,0.30
2022-08-07T04:40:29.543Z,0.17
2022-08-07T04:43:02.102Z,0.30
2022-08-07T04:46:00.348Z,0.20
2022-08-07T04:48:35.460Z,0.20
2022-08-07T04:51:27.568Z,0.20
2022-08-07T04:54:06.308Z,0.20
2022-08-07T04:58:15.941Z,0.30
2022-08-07T05:00:11.170Z,0.30
2022-08-07T05:02:45.316Z,0.20
2022-08-07T05:05:54.009Z,0.50
2022-08-07T05:08:59.607Z,0.30
2022-08-07T05:11:24.225Z,0.25
2022-08-07T05:14:54.548Z,0.17
2022-08-07T05:16:56.874Z,0.20
2022-08-07T05:19:32.689Z,0.20
2022-08-07T05:22:13.014Z,0.40
2022-08-07T05:24:55.888Z,0.30
2022-08-07T05:28:16.705Z,0.20
2022-08-07T05:30:12.014Z,0.20
2022-08-07T05:32:40.971Z,0.10
2022-08-07T05:35:12.206Z,0.17
2022-08-07T05:37:42.297Z,0.20
2022-08-07T05:40:18.523Z,0.10
2022-08-07T05:42:55.690Z,0.20
2022-08-07T05:45:46.956Z,0.22
2022-08-07T05:48:11.702Z,0.20
2022-08-07T05:50:43.066Z,0.20
2022-08-07T05:54:08.589Z,0.20
2022-08-07T05:56:02.157Z,0.20
2022-08-07T05:58:36.056Z,0.13
2022-08-07T06:01:10.421Z,0.15
2022-08-07T06:03:56.929Z,0.20
2022-08-07T06:06:29.849Z,0.20
2022-08-07T06:09:01.225Z,0.70
2022-08-07T06:11:32.918Z,0.10
2022-08-07T06:14:12.684Z,0.10
2022-08-07T06:16:50.746Z,0.20
2022-08-07T06:19:49.981Z,0.15
2022-08-07T06:22:22.870Z,0.15
2022-08-07T06:24:58.049Z,0.20
2022-08-07T06:28:00.480Z,0.17
2022-08-07T06:30:24.183Z,0.10
2022-08-07T06:33:03.532Z,0.20
2022-08-07T06:35:45.336Z,0.20
2022-08-07T06:38:20.581Z,0.10
2022-08-07T06:40:54.297Z,0.20
2022-08-07T06:43:24.981Z,0.20
2022-08-07T06:45:57.363Z,0.20
2022-08-07T06:48:27.902Z,0.20
2022-08-07T06:50:58.032Z,0.30
2022-08-07T06:54:12.212Z,0.30
2022-08-07T06:56:48.480Z,0.30
2022-08-07T07:00:14.489Z,0.57
2022-08-07T07:02:48.630Z,1.65
2022-08-07T07:05:07.505Z,0.20
2022-08-07T07:07:58.658Z,0.40
2022-08-07T07:10:34.978Z,0.40
2022-08-07T07:13:13.287Z,0.40
2022-08-07T07:15:51.740Z,2.80
2022-08-07T07:18:47.119Z,0.45
2022-08-07T07:22:05.474Z,1.08
2022-08-07T07:24:17.574Z,0.32
2022-08-07T07:26:51.774Z,0.30
2022-08-07T07:29:40.657Z,0.32
2022-08-07T07:32:14.093Z,0.38
2022-08-07T07:34:57.934Z,0.30
2022-08-07T07:37:49.720Z,1.02
2022-08-07T07:40:20.230Z,0.40
2022-08-07T07:42:55.580Z,0.20
2022-08-07T07:46:40.020Z,0.38
2022-08-07T07:48:34.847Z,0.75
2022-08-07T07:51:07.925Z,0.30
2022-08-07T07:53:51.714Z,0.30
2022-08-07T07:56:29.693Z,0.65
2022-08-07T07:59:00.423Z,0.40
2022-08-07T08:02:01.700Z,0.77
2022-08-07T08:04:20.250Z,0.63
2022-08-07T08:06:54.501Z,0.40
2022-08-07T08:09:29.288Z,0.50
2022-08-07T08:12:01.854Z,0.50
2022-08-07T08:14:36.957Z,0.40
2022-08-07T08:17:55.709Z,0.40
2022-08-07T08:20:17.859Z,0.77
2022-08-07T08:23:10.261Z,0.95
2022-08-07T08:26:03.344Z,0.40
2022-08-07T08:28:44.864Z,0.35
2022-08-07T08:31:18.311Z,0.30
2022-08-07T08:33:59.027Z,0.40
2022-08-07T08:36:29.789Z,0.40
2022-08-07T08:39:01.654Z,1.35
2022-08-07T08:41:56.752Z,1.58
2022-08-07T08:44:54.386Z,1.05
2022-08-07T08:47:51.955Z,0.50
2022-08-07T08:50:39.523Z,0.60
2022-08-07T08:54:02.583Z,0.70
2022-08-07T08:56:37.680Z,0.88
2022-08-07T08:59:41.835Z,0.70
2022-08-07T09:02:34.710Z,0.93
2022-08-07T09:05:31.980Z,0.98
2022-08-07T09:08:32.154Z,0.70
2022-08-07T09:11:08.859Z,0.70
2022-08-07T09:14:02.270Z,1.10
2022-08-07T09:16:48.640Z,0.50
2022-08-07T09:19:51.183Z,1.45
2022-08-07T09:24:32.047Z,0.77
2022-08-07T09:25:54.460Z,0.90
2022-08-07T09:30:03.367Z,0.60
2022-08-07T09:32:00.725Z,0.90
2022-08-07T09:35:04.712Z,0.60
2022-08-07T09:38:10.400Z,0.68
2022-08-07T09:40:56.582Z,3.17
2022-08-07T09:44:05.422Z,0.60
2022-08-07T09:47:51.947Z,0.93
2022-08-07T09:50:19.663Z,1.00
2022-08-07T09:52:53.789Z,0.68
2022-08-07T09:56:03.762Z,0.60
2022-08-07T09:58:56.427Z,0.70
2022-08-07T10:02:09.891Z,1.10
2022-08-07T10:04:47.717Z,0.80
2022-08-07T10:07:53.442Z,0.60
2022-08-07T10:10:30.680Z,0.73
2022-08-07T10:13:54.891Z,0.88
2022-08-07T10:16:24.404Z,0.65
2022-08-07T10:18:57.284Z,2.15
2022-08-07T10:22:12.554Z,0.63
2022-08-07T10:25:08.519Z,0.50
2022-08-07T10:27:59.841Z,0.68
2022-08-07T10:30:56.652Z,0.60
2022-08-07T10:34:15.173Z,1.15
2022-08-07T10:36:48.802Z,0.70
2022-08-07T10:39:18.618Z,0.60
2022-08-07T10:42:20.915Z,1.10
2022-08-07T10:45:44.352Z,1.77
2022-08-07T10:48:14.993Z,1.67
2022-08-07T10:50:50.662Z,6.97
2022-08-07T10:53:45.918Z,12.15
2022-08-07T10:56:43.710Z,9.07
2022-08-07T10:59:25.208Z,5.53
2022-08-07T11:02:33.279Z,2.78
2022-08-07T11:05:20.084Z,1.60
2022-08-07T11:08:06.399Z,2.00
2022-08-07T11:11:12.447Z,0.77
2022-08-07T11:14:57.017Z,0.77
2022-08-07T11:16:54.776Z,0.65
2022-08-07T11:19:55.846Z,0.90
2022-08-07T11:22:36.114Z,0.60
2022-08-07T11:25:48.236Z,0.65
2022-08-07T11:28:34.182Z,0.70
2022-08-07T11:31:16.059Z,0.70
2022-08-07T11:33:58.562Z,0.68
2022-08-07T11:37:11.612Z,0.70
2022-08-07T11:40:08.404Z,0.40
2022-08-07T11:42:59.715Z,2.10
2022-08-07T11:46:14.122Z,5.35
2022-08-07T11:49:50.529Z,5.55
2022-08-07T11:52:19.650Z,4.57
2022-08-07T11:56:15.552Z,7.75
2022-08-07T11:58:40.995Z,4.05
2022-08-07T12:01:22.988Z,2.28
2022-08-07T12:04:27.464Z,1.88
2022-08-07T12:07:09.035Z,1.85
2022-08-07T12:09:57.287Z,1.58
2022-08-07T12:12:34.613Z,3.58
2022-08-07T12:15:04.590Z,2.47
2022-08-07T12:17:58.638Z,1.20
2022-08-07T12:20:45.038Z,1.00
2022-08-07T12:24:05.120Z,1.60
2022-08-07T12:26:46.998Z,1.48
2022-08-07T12:29:22.558Z,1.15
2022-08-07T12:32:27.085Z,0.80
2022-08-07T12:34:56.524Z,0.60
2022-08-07T12:37:28.304Z,0.50
2022-08-07T12:40:46.874Z,1.08
2022-08-07T12:43:10.099Z,0.70
2022-08-07T12:45:52.738Z,0.50
2022-08-07T12:48:53.070Z,0.40
2022-08-07T12:51:33.346Z,0.60
2022-08-07T12:54:38.436Z,0.50
2022-08-07T12:57:09.643Z,0.40
2022-08-07T12:59:54.660Z,0.50
2022-08-07T13:02:50.861Z,1.17
2022-08-07T13:06:03.481Z,0.70
2022-08-07T13:08:51.687Z,0.50
2022-08-07T13:12:03.252Z,0.55
2022-08-07T13:14:57.461Z,0.73
2022-08-07T13:17:40.858Z,0.70
2022-08-07T13:20:39.297Z,0.50
2022-08-07T13:24:03.965Z,0.60
2022-08-07T13:26:15.962Z,0.40
2022-08-07T13:28:58.209Z,0.50
2022-08-07T13:31:55.290Z,0.90
2022-08-07T13:35:09.328Z,0.57
2022-08-07T13:37:42.063Z,0.70
2022-08-07T13:40:35.033Z,0.50
2022-08-07T13:43:13.301Z,0.88
2022-08-07T13:46:11.711Z,0.43
2022-08-07T13:48:38.693Z,1.58
2022-08-07T13:51:28.436Z,1.20
2022-08-07T13:54:02.115Z,0.45
2022-08-07T13:56:36.000Z,0.50
2022-08-07T13:59:15.797Z,0.75
2022-08-07T14:02:03.738Z,0.50
2022-08-07T14:04:36.302Z,1.48
2022-08-07T14:07:10.227Z,0.50
2022-08-07T14:10:02.928Z,0.52
2022-08-07T14:12:41.885Z,0.40
2022-08-07T14:15:18.596Z,0.35
2022-08-07T14:18:24.237Z,0.60
2022-08-07T14:20:42.384Z,0.40
2022-08-07T14:23:58.879Z,0.40
2022-08-07T14:26:30.525Z,0.88
2022-08-07T14:29:08.536Z,0.50
2022-08-07T14:31:56.604Z,0.50
2022-08-07T14:34:29.874Z,0.70
2022-08-07T14:37:01.585Z,0.88
2022-08-07T14:40:14.788Z,0.38
2022-08-07T14:42:27.615Z,0.52
2022-08-07T14:45:21.519Z,0.52
2022-08-07T14:47:51.250Z,0.45
2022-08-07T14:50:22.598Z,0.30
2022-08-07T14:52:53.010Z,0.30
2022-08-07T14:55:20.777Z,0.40
2022-08-07T14:57:55.088Z,0.40
2022-08-07T15:00:31.042Z,0.50
2022-08-07T15:03:00.239Z,0.40
2022-08-07T15:05:55.091Z,0.40
2022-08-07T15:11:53.290Z,0.32
2022-08-07T15:14:20.934Z,0.75
2022-08-07T15:16:55.781Z,1.48
2022-08-07T15:22:29.529Z,0.50
2022-08-07T15:28:14.127Z,0.50
2022-08-07T15:31:05.297Z,1.23
2022-08-07T15:33:36.281Z,0.45
2022-08-07T15:36:07.779Z,0.30
2022-08-07T15:38:58.917Z,0.45
2022-08-07T15:42:43.288Z,0.50
2022-08-07T15:44:18.903Z,0.40
2022-08-07T15:46:55.938Z,0.70
2022-08-07T15:52:30.701Z,0.80
2022-08-07T15:55:02.388Z,0.47
2022-08-07T15:57:47.852Z,0.40
2022-08-07T16:00:31.749Z,0.40
2022-08-07T16:03:21.344Z,0.40
2022-08-07T16:06:03.189Z,0.30
2022-08-07T16:08:38.699Z,0.38
2022-08-07T16:11:27.265Z,0.40
2022-08-07T16:14:12.784Z,0.32
2022-08-07T16:17:15.410Z,0.40
2022-08-07T16:20:33.127Z,0.30
2022-08-07T16:23:54.046Z,0.32
2022-08-07T16:26:30.818Z,0.35
2022-08-07T16:30:11.187Z,0.50
2022-08-07T16:32:34.544Z,0.73
2022-08-07T16:35:52.418Z,0.70
2022-08-07T16:39:00.067Z,0.98
2022-08-07T16:41:41.725Z,0.55
2022-08-07T16:44:55.355Z,0.40
2022-08-07T16:47:56.878Z,0.30
2022-08-07T16:51:13.608Z,0.40
2022-08-07T16:54:02.073Z,0.63
2022-08-07T16:56:49.290Z,0.50
2022-08-07T16:59:20.352Z,0.65
2022-08-07T17:01:51.413Z,0.45
2022-08-07T17:04:32.943Z,0.55
2022-08-07T17:07:04.062Z,1.85
2022-08-07T17:10:08.015Z,2.05
2022-08-07T17:12:44.398Z,1.42
2022-08-07T17:15:16.049Z,0.30
2022-08-07T17:17:47.332Z,0.40
2022-08-07T17:20:37.804Z,0.60
2022-08-07T17:23:22.911Z,0.35
2022-08-07T17:26:22.858Z,0.77
2022-08-07T17:29:09.696Z,0.40
2022-08-07T17:32:31.226Z,0.95
2022-08-07T17:35:51.436Z,0.50
2022-08-07T17:38:33.469Z,0.50
2022-08-07T17:42:04.282Z,1.45
2022-08-07T17:44:33.499Z,0.40
2022-08-07T17:47:17.177Z,0.43
2022-08-07T17:50:02.264Z,0.52
2022-08-07T17:52:52.484Z,0.40
2022-08-07T17:56:06.390Z,0.40
2022-08-07T17:58:53.115Z,0.88
2022-08-07T18:01:37.304Z,0.45
2022-08-07T18:04:30.872Z,0.20
2022-08-07T18:07:20.171Z,0.38
2022-08-07T18:10:06.596Z,0.50
2022-08-07T18:12:53.622Z,0.30
2022-08-07T18:15:32.814Z,0.20
2022-08-07T18:18:47.072Z,0.30
2022-08-07T18:21:41.442Z,0.22
2022-08-07T18:24:02.049Z,1.35
2022-08-07T18:26:40.574Z,0.20
2022-08-07T18:30:05.703Z,0.30
2022-08-07T18:32:13.070Z,0.73
2022-08-07T18:35:01.458Z,0.20
2022-08-07T18:38:55.628Z,0.10
2022-08-07T18:41:17.254Z,0.20
2022-08-07T18:44:11.842Z,0.20
2022-08-07T18:47:00.218Z,0.55
2022-08-07T18:50:31.384Z,0.30
2022-08-07T18:53:06.028Z,0.20
2022-08-07T18:56:01.230Z,0.20
2022-08-07T18:59:00.075Z,0.13
2022-08-07T19:02:18.671Z,0.20
2022-08-07T19:05:10.477Z,0.10
2022-08-07T19:08:14.957Z,0.10
2022-08-07T19:10:51.992Z,0.20
2022-08-07T19:13:40.603Z,0.10
2022-08-07T19:17:04.223Z,0.10
2022-08-07T19:19:46.083Z,0.30
2022-08-07T19:22:34.121Z,0.20
2022-08-07T19:25:05.434Z,0.25
2022-08-07T19:28:58.190Z,0.30
2022-08-07T19:31:03.914Z,0.40
2022-08-07T19:33:16.165Z,0.30
2022-08-07T19:35:51.364Z,0.20
2022-08-07T19:38:22.609Z,0.17
2022-08-07T19:40:52.039Z,0.20
2022-08-07T19:43:50.333Z,0.90
2022-08-07T19:46:17.930Z,0.20
2022-08-07T19:48:55.354Z,0.20
2022-08-07T19:51:52.229Z,0.30
2022-08-07T19:54:30.986Z,0.30
2022-08-07T19:58:00.370Z,0.20
2022-08-07T20:00:10.208Z,0.28
2022-08-07T20:02:52.227Z,0.22
2022-08-07T20:05:25.389Z,0.30
2022-08-07T20:08:04.001Z,0.20
2022-08-07T20:10:54.611Z,0.20
2022-08-07T20:13:34.044Z,0.35
2022-08-07T20:16:03.750Z,0.20
2022-08-07T20:18:34.677Z,0.20
2022-08-07T20:21:21.469Z,0.35
2022-08-07T20:23:54.376Z,0.40
2022-08-07T20:26:32.525Z,0.30
2022-08-07T20:29:46.991Z,0.57
2022-08-07T20:32:03.432Z,0.30
2022-08-07T20:34:50.315Z,0.30
2022-08-07T20:37:23.933Z,0.40
2022-08-07T20:40:03.973Z,0.20
2022-08-07T20:42:33.679Z,0.30
2022-08-07T20:45:02.242Z,0.35
2022-08-07T20:47:56.363Z,0.32
2022-08-07T20:50:22.425Z,0.28
2022-08-07T20:52:51.777Z,0.20
2022-08-07T20:55:23.947Z,0.40
2022-08-07T20:58:02.612Z,0.30
2022-08-07T21:00:44.452Z,0.20
2022-08-07T21:03:19.285Z,0.20
2022-08-07T21:06:03.741Z,0.20
2022-08-07T21:09:03.001Z,1.00
2022-08-07T21:11:40.120Z,0.20
2022-08-07T21:14:33.095Z,0.38
2022-08-07T21:18:06.580Z,0.30
2022-08-07T21:20:04.711Z,0.30
2022-08-07T21:22:39.533Z,0.20
2022-08-07T21:25:23.138Z,1.23
2022-08-07T21:28:16.728Z,0.52
2022-08-07T21:31:05.407Z,0.30
2022-08-07T21:33:50.829Z,0.40
2022-08-07T21:36:40.095Z,0.38
2022-08-07T21:39:47.850Z,0.50
2022-08-07T21:42:42.315Z,0.35
2022-08-07T21:46:07.643Z,0.45
2022-08-07T21:48:34.586Z,0.40
2022-08-07T21:51:19.903Z,0.40
2022-08-07T21:53:54.467Z,0.40
2022-08-07T21:56:49.354Z,0.40
2022-08-07T22:00:04.138Z,0.30
2022-08-07T22:02:47.729Z,0.30
2022-08-07T22:05:44.619Z,0.25
2022-08-07T22:08:10.366Z,0.30
2022-08-07T22:10:38.591Z,0.40
2022-08-07T22:13:14.317Z,0.25
2022-08-07T22:16:45.110Z,0.35
2022-08-07T22:19:13.139Z,0.32
2022-08-07T22:22:02.652Z,0.30
2022-08-07T22:24:52.815Z,0.30
2022-08-07T22:27:34.124Z,0.30
2022-08-07T22:30:17.457Z,0.20
2022-08-07T22:33:06.277Z,0.50
2022-08-07T22:36:06.556Z,0.20
2022-08-07T22:38:53.464Z,0.20
2022-08-07T22:42:03.045Z,0.30
2022-08-07T22:44:24.870Z,0.30
2022-08-07T22:47:31.793Z,0.22
2022-08-07T22:50:32.993Z,0.30
2022-08-07T22:54:08.049Z,0.30
2022-08-07T22:56:13.199Z,0.30
2022-08-07T22:59:16.111Z,0.20
2022-08-07T23:01:53.747Z,0.30
2022-08-07T23:04:58.303Z,0.28
2022-08-07T23:08:04.861Z,0.30
2022-08-07T23:11:13.263Z,0.57
2022-08-07T23:14:18.238Z,0.30
2022-08-07T23:17:04.489Z,0.40
2022-08-07T23:20:51.538Z,0.20
2022-08-07T23:24:05.681Z,0.30
2022-08-07T23:26:26.233Z,0.20
2022-08-07T23:30:38.622Z,0.20
2022-08-07T23:34:34.866Z,0.20
2022-08-07T23:36:03.682Z,0.20
2022-08-07T23:39:08.635Z,0.20
2022-08-07T23:42:21.920Z,0.25
2022-08-07T23:45:03.517Z,0.20
2022-08-07T23:48:06.725Z,0.28
2022-08-07T23:50:47.048Z,0.22
2022-08-07T23:53:49.527Z,0.30
2022-08-07T23:56:54.995Z,0.30
